Time;durP1;ratioP1;P1;durP2;ratioP2;P2;SDS_P1;SDS_P2;PMS_P1;PMS_P2;Temp;Humidity;BMP_temperature;BMP_pressure;BME280_temperature;BME280_humidity;BME280_pressure;Samples;Min_cycle;Max_cycle;Signal;HPM_P1;HPM_P2
2021/05/16 00:01:19;;;;;;;19.48;11.93;;;;;;;13.97;100.00;100483.41;1644181;85;21459;-69
2021/05/16 00:03:48;;;;;;;18.60;12.43;;;;;;;13.95;100.00;100478.58;1674203;84;21639;-60
2021/05/16 00:06:14;;;;;;;17.65;13.48;;;;;;;13.95;100.00;100478.08;1649239;84;20994;-63
2021/05/16 00:08:44;;;;;;;20.62;12.75;;;;;;;13.96;100.00;100477.13;1629892;86;22236;-64
2021/05/16 00:11:11;;;;;;;20.02;13.35;;;;;;;13.94;100.00;100478.19;1672651;84;21034;-64
2021/05/16 00:13:37;;;;;;;18.92;12.93;;;;;;;13.93;100.00;100477.30;1661263;84;21562;-64
2021/05/16 00:16:06;;;;;;;16.12;11.75;;;;;;;13.95;100.00;100474.05;1645403;85;21410;-62
2021/05/16 00:18:32;;;;;;;14.80;10.50;;;;;;;13.97;100.00;100466.74;1634138;86;21577;-64
2021/05/16 00:20:59;;;;;;;13.25;9.38;;;;;;;13.98;100.00;100463.09;1626784;86;21860;-68
2021/05/16 00:23:26;;;;;;;14.75;9.25;;;;;;;13.98;100.00;100461.74;1652541;84;21123;-68
2021/05/16 00:25:53;;;;;;;14.83;10.35;;;;;;;14.01;100.00;100457.53;1649303;85;21157;-63
2021/05/16 00:28:20;;;;;;;16.12;8.93;;;;;;;14.03;100.00;100452.92;1632202;87;21681;-63
2021/05/16 00:30:49;;;;;;;17.30;8.88;;;;;;;14.04;100.00;100454.70;1647185;86;21149;-63
2021/05/16 00:33:15;;;;;;;11.22;7.92;;;;;;;14.03;100.00;100446.19;1645682;86;21387;-63
2021/05/16 00:35:43;;;;;;;15.15;9.05;;;;;;;14.05;100.00;100448.81;1671000;85;21120;-63
2021/05/16 00:38:09;;;;;;;11.28;8.53;;;;;;;14.06;100.00;100436.22;1653365;85;22144;-67
2021/05/16 00:40:36;;;;;;;14.33;9.10;;;;;;;14.05;100.00;100438.03;1648471;86;21086;-64
2021/05/16 00:43:05;;;;;;;21.85;11.40;;;;;;;14.06;100.00;100444.31;1639465;86;21154;-67
2021/05/16 00:45:32;;;;;;;16.52;10.25;;;;;;;14.07;100.00;100439.31;1640539;86;21101;-65
2021/05/16 00:48:01;;;;;;;22.55;12.73;;;;;;;14.10;100.00;100439.13;1649246;86;21670;-64
2021/05/16 00:50:33;;;;;;;19.90;13.22;;;;;;;14.11;100.00;100436.83;1652559;84;22172;-68
2021/05/16 00:53:00;;;;;;;25.80;15.98;;;;;;;14.12;100.00;100435.38;1654342;84;21561;-68
2021/05/16 00:55:26;;;;;;;23.70;16.40;;;;;;;14.15;100.00;100438.40;1664860;84;21094;-63
2021/05/16 00:57:53;;;;;;;18.32;13.75;;;;;;;14.14;100.00;100438.86;1649715;86;21714;-63
2021/05/16 01:00:26;;;;;;;25.20;14.83;;;;;;;14.13;100.00;100443.00;1635693;86;21609;-63
2021/05/16 01:02:55;;;;;;;22.20;13.72;;;;;;;14.13;100.00;100433.08;1651463;85;21163;-67
2021/05/16 01:05:22;;;;;;;21.42;13.58;;;;;;;14.11;100.00;100427.39;1680501;83;21643;-66
2021/05/16 01:07:49;;;;;;;23.65;14.90;;;;;;;14.10;100.00;100429.20;1666846;83;21066;-63
2021/05/16 01:10:16;;;;;;;19.92;10.93;;;;;;;14.11;100.00;100422.86;1672666;84;21028;-66
2021/05/16 01:12:46;;;;;;;16.57;9.08;;;;;;;14.10;100.00;100421.61;1652404;85;21066;-68
2021/05/16 01:15:18;;;;;;;16.87;9.18;;;;;;;14.09;100.00;100417.18;1657321;85;21677;-66
2021/05/16 01:17:45;;;;;;;13.70;9.08;;;;;;;14.10;100.00;100413.53;1669773;85;21130;-68
2021/05/16 01:20:29;;;;;;;27.90;9.88;;;;;;;14.12;100.00;100412.95;1644139;85;21638;-63
2021/05/16 01:23:07;;;;;;;24.40;12.85;;;;;;;14.14;100.00;100411.05;1622311;87;21109;-67
2021/05/16 01:25:37;;;;;;;20.77;14.25;;;;;;;14.17;100.00;100409.06;1671603;84;21085;-67
2021/05/16 01:28:04;;;;;;;31.80;15.15;;;;;;;14.21;100.00;100411.09;1637614;84;21117;-63
2021/05/16 01:30:31;;;;;;;45.73;19.80;;;;;;;14.20;100.00;100406.66;1675484;85;21558;-65
2021/05/16 01:32:59;;;;;;;49.70;18.05;;;;;;;14.17;100.00;100410.41;1653532;85;21394;-66
2021/05/16 01:35:26;;;;;;;64.42;19.42;;;;;;;14.14;100.00;100412.39;1641385;85;21056;-67
2021/05/16 01:37:52;;;;;;;98.12;22.58;;;;;;;14.11;100.00;100408.52;1646363;85;21160;-66
2021/05/16 01:40:21;;;;;;;67.95;22.87;;;;;;;14.06;100.00;100414.16;1678333;85;21049;-65
2021/05/16 01:42:51;;;;;;;31.27;12.50;;;;;;;14.01;100.00;100418.45;1671483;84;21295;-64
2021/05/16 01:45:22;;;;;;;14.30;10.98;;;;;;;13.97;100.00;100416.03;1678925;84;22332;-64
2021/05/16 01:47:48;;;;;;;21.20;13.13;;;;;;;13.93;100.00;100408.58;1641945;85;21419;-62
2021/05/16 01:50:17;;;;;;;18.57;11.63;;;;;;;13.95;100.00;100401.77;1661510;84;21476;-65
2021/05/16 01:52:45;;;;;;;17.05;11.97;;;;;;;13.97;100.00;100395.32;1674794;84;21116;-66
2021/05/16 01:55:16;;;;;;;20.97;11.97;;;;;;;14.00;100.00;100395.64;1660659;84;21157;-64
2021/05/16 01:57:44;;;;;;;20.82;13.10;;;;;;;14.02;100.00;100395.08;1660190;84;21614;-64
2021/05/16 02:00:29;;;;;;;24.00;16.15;;;;;;;14.08;100.00;100395.22;1659878;84;21613;-64
2021/05/16 02:02:57;;;;;;;36.83;18.80;;;;;;;14.11;100.00;100385.61;1661865;85;21150;-64
2021/05/16 02:05:25;;;;;;;32.30;18.50;;;;;;;14.12;100.00;100391.39;1675405;85;21690;-63
2021/05/16 02:07:52;;;;;;;38.98;20.77;;;;;;;14.11;100.00;100391.00;1653610;85;21138;-63
2021/05/16 02:10:20;;;;;;;34.38;21.57;;;;;;;14.09;100.00;100386.17;1661273;85;21038;-62
2021/05/16 02:12:46;;;;;;;43.92;21.62;;;;;;;14.06;100.00;100393.09;1668765;85;21101;-63
2021/05/16 02:15:15;;;;;;;46.10;21.00;;;;;;;14.00;100.00;100393.80;1659718;85;22007;-62
2021/05/16 02:17:42;;;;;;;36.90;22.50;;;;;;;13.95;100.00;100387.80;1649494;85;22310;-67
2021/05/16 02:20:13;;;;;;;32.53;22.10;;;;;;;13.91;100.00;100394.31;1633297;86;21932;-66
2021/05/16 02:22:41;;;;;;;34.60;22.10;;;;;;;13.87;100.00;100393.60;1611664;87;21535;-66
2021/05/16 02:25:10;;;;;;;32.55;21.35;;;;;;;13.82;100.00;100396.18;1636825;85;22385;-67
2021/05/16 02:27:37;;;;;;;33.63;21.70;;;;;;;13.79;100.00;100399.02;1639634;85;21090;-66
2021/05/16 02:30:08;;;;;;;32.45;22.60;;;;;;;13.77;100.00;100398.23;1644193;85;21161;-62
2021/05/16 02:32:37;;;;;;;30.40;20.32;;;;;;;13.74;100.00;100398.80;1644485;86;21026;-64
2021/05/16 02:35:06;;;;;;;46.00;21.87;;;;;;;13.73;100.00;100397.05;1666650;85;21104;-63
2021/05/16 02:37:35;;;;;;;37.10;20.27;;;;;;;13.74;100.00;100392.05;1657887;85;21022;-63
2021/05/16 02:40:04;;;;;;;42.98;22.13;;;;;;;13.74;100.00;100392.05;1658244;85;21695;-63
2021/05/16 02:42:31;;;;;;;28.52;19.07;;;;;;;13.77;100.00;100389.69;1667306;83;21124;-63
2021/05/16 02:44:58;;;;;;;31.05;18.77;;;;;;;13.77;100.00;100388.34;1667214;85;21081;-63
2021/05/16 02:47:25;;;;;;;31.48;18.27;;;;;;;13.78;100.00;100388.73;1657200;85;21606;-66
2021/05/16 02:49:51;;;;;;;35.80;19.15;;;;;;;13.79;100.00;100393.63;1654648;85;21761;-62
2021/05/16 02:52:18;;;;;;;39.27;20.45;;;;;;;13.80;100.00;100397.59;1656214;85;21140;-63
2021/05/16 02:54:47;;;;;;;31.73;19.27;;;;;;;13.81;100.00;100407.88;1673376;84;21586;-61
2021/05/16 02:57:14;;;;;;;37.48;22.00;;;;;;;13.79;100.00;100412.48;1682161;84;21148;-64
2021/05/16 02:59:41;;;;;;;36.73;19.98;;;;;;;13.75;100.00;100409.97;1652227;85;21566;-62
2021/05/16 03:02:09;;;;;;;36.53;18.17;;;;;;;13.75;100.00;100409.11;1644392;85;21460;-67
2021/05/16 03:04:36;;;;;;;35.63;18.30;;;;;;;13.72;100.00;100411.48;1625393;86;21075;-66
2021/05/16 03:07:03;;;;;;;46.30;19.00;;;;;;;13.72;100.00;100415.52;1623022;86;21461;-66
2021/05/16 03:09:34;;;;;;;38.00;18.90;;;;;;;13.72;100.00;100412.83;1623350;86;21599;-62
2021/05/16 03:12:01;;;;;;;35.73;18.35;;;;;;;13.70;100.00;100410.69;1626467;86;21721;-63
2021/05/16 03:14:29;;;;;;;35.80;17.60;;;;;;;13.72;100.00;100414.17;1654725;85;21045;-62
2021/05/16 03:16:58;;;;;;;39.15;15.78;;;;;;;13.73;100.00;100419.09;1649092;85;21090;-63
2021/05/16 03:19:27;;;;;;;28.92;15.58;;;;;;;13.74;100.00;100421.70;1625400;87;21209;-65
2021/05/16 03:21:53;;;;;;;29.07;14.58;;;;;;;13.78;100.00;100420.17;1681364;83;21405;-65
2021/05/16 03:24:21;;;;;;;25.70;14.95;;;;;;;13.83;100.00;100419.48;1631780;85;22204;-66
2021/05/16 03:26:48;;;;;;;36.60;16.25;;;;;;;13.89;100.00;100416.44;1633594;85;21592;-66
2021/05/16 03:29:15;;;;;;;45.55;18.50;;;;;;;13.93;100.00;100427.44;1648370;85;21637;-66
2021/05/16 03:31:43;;;;;;;29.30;15.75;;;;;;;13.96;100.00;100435.84;1618553;84;21049;-65
2021/05/16 03:34:10;;;;;;;17.25;12.60;;;;;;;13.94;100.00;100434.57;1626341;86;21173;-65
2021/05/16 03:36:39;;;;;;;15.85;10.80;;;;;;;13.94;100.00;100433.22;1650358;84;21005;-65
2021/05/16 03:39:06;;;;;;;12.95;9.03;;;;;;;13.97;100.00;100437.09;1640294;84;21208;-65
2021/05/16 03:41:32;;;;;;;14.00;9.80;;;;;;;14.03;100.00;100444.84;1615881;87;21110;-62
2021/05/16 03:44:00;;;;;;;13.83;8.95;;;;;;;14.12;100.00;100452.05;1632601;86;21134;-64
2021/05/16 03:46:27;;;;;;;19.15;9.73;;;;;;;14.21;100.00;100456.92;1624965;86;21512;-67
2021/05/16 03:48:53;;;;;;;18.70;10.82;;;;;;;14.32;100.00;100456.33;1633953;86;21090;-61
2021/05/16 03:51:20;;;;;;;16.07;9.83;;;;;;;14.47;100.00;100458.64;1647077;85;21125;-63
2021/05/16 03:53:47;;;;;;;22.22;11.63;;;;;;;14.58;100.00;100457.58;1630458;86;21532;-61
2021/05/16 03:56:14;;;;;;;29.45;13.00;;;;;;;14.71;100.00;100467.72;1629929;86;21051;-62
2021/05/16 03:58:40;;;;;;;21.48;12.30;;;;;;;14.80;100.00;100472.58;1631430;86;21523;-63
2021/05/16 04:01:09;;;;;;;18.92;11.65;;;;;;;14.89;100.00;100468.48;1628959;86;21618;-68
2021/05/16 04:03:35;;;;;;;21.37;12.23;;;;;;;14.99;100.00;100474.22;1620120;86;21611;-65
2021/05/16 04:06:02;;;;;;;25.68;14.68;;;;;;;15.08;100.00;100475.52;1618927;87;21118;-63
2021/05/16 04:08:29;;;;;;;18.15;12.18;;;;;;;15.15;100.00;100484.52;1619755;86;21460;-65
2021/05/16 04:10:56;;;;;;;20.68;13.70;;;;;;;15.22;100.00;100488.20;1622172;86;21142;-63
2021/05/16 04:13:24;;;;;;;22.22;14.55;;;;;;;15.27;100.00;100483.39;1627505;86;21372;-64
2021/05/16 04:15:51;;;;;;;23.57;14.83;;;;;;;15.37;100.00;100475.61;1628795;87;21209;-63
2021/05/16 04:18:17;;;;;;;22.10;15.32;;;;;;;15.41;100.00;100469.95;1620758;87;21114;-65
2021/05/16 04:20:44;;;;;;;24.47;14.70;;;;;;;15.52;100.00;100476.52;1603914;88;22227;-62
2021/05/16 04:23:11;;;;;;;30.00;13.62;;;;;;;15.68;99.89;100481.86;1650071;84;21713;-62
2021/05/16 04:25:38;;;;;;;21.80;13.32;;;;;;;15.88;99.52;100480.66;1639828;85;20995;-65
2021/05/16 04:28:04;;;;;;;29.00;15.15;;;;;;;16.07;98.77;100480.91;1639374;85;21176;-64
2021/05/16 04:30:31;;;;;;;24.80;15.08;;;;;;;16.21;98.21;100490.35;1614985;87;21110;-64
2021/05/16 04:32:57;;;;;;;17.55;12.98;;;;;;;16.33;97.48;100477.42;1630331;86;21413;-61
2021/05/16 04:35:24;;;;;;;20.60;13.62;;;;;;;16.46;97.17;100483.38;1629338;86;21151;-60
2021/05/16 04:37:51;;;;;;;20.23;14.07;;;;;;;16.58;96.26;100488.52;1641579;85;21114;-63
2021/05/16 04:40:19;;;;;;;17.45;13.30;;;;;;;16.63;95.40;100466.08;1658434;85;21657;-63
2021/05/16 04:42:45;;;;;;;20.02;13.83;;;;;;;16.69;94.72;100469.73;1651298;85;21086;-61
2021/05/16 04:45:13;;;;;;;21.02;14.15;;;;;;;16.79;94.23;100469.99;1644340;85;21622;-62
2021/05/16 04:47:40;;;;;;;24.30;14.28;;;;;;;16.92;93.35;100469.19;1643827;85;21046;-64
2021/05/16 04:50:07;;;;;;;19.23;13.75;;;;;;;17.06;92.63;100473.22;1648188;85;21116;-65
2021/05/16 04:52:34;;;;;;;18.02;13.13;;;;;;;17.17;91.51;100480.16;1619797;87;21079;-61
2021/05/16 04:55:01;;;;;;;19.95;12.85;;;;;;;17.22;91.17;100477.61;1656523;84;21607;-61
2021/05/16 04:57:27;;;;;;;18.48;13.48;;;;;;;17.28;91.01;100482.61;1625068;86;21829;-61
2021/05/16 04:59:54;;;;;;;15.50;11.90;;;;;;;17.35;90.47;100478.50;1654633;85;21010;-60
2021/05/16 05:02:21;;;;;;;15.03;10.98;;;;;;;17.41;89.86;100474.04;1643342;86;21419;-66
2021/05/16 05:04:47;;;;;;;16.93;10.28;;;;;;;17.50;89.49;100479.80;1644141;85;21655;-65
2021/05/16 05:07:16;;;;;;;12.80;9.63;;;;;;;17.60;88.86;100493.11;1624273;86;21873;-62
2021/05/16 05:09:43;;;;;;;12.58;9.45;;;;;;;17.69;88.65;100487.03;1633010;87;21603;-61
2021/05/16 05:12:10;;;;;;;11.10;9.23;;;;;;;17.78;88.25;100480.58;1621129;86;21200;-61
2021/05/16 05:14:37;;;;;;;12.13;9.05;;;;;;;17.82;88.00;100484.34;1628930;86;21603;-63
2021/05/16 05:17:04;;;;;;;8.65;6.90;;;;;;;17.82;87.75;100487.55;1628386;87;21161;-66
2021/05/16 05:19:31;;;;;;;11.43;6.55;;;;;;;17.78;88.13;100481.94;1639407;86;21173;-61
2021/05/16 05:21:57;;;;;;;14.00;6.80;;;;;;;17.78;88.46;100480.11;1631125;86;21862;-61
2021/05/16 05:24:24;;;;;;;7.35;5.12;;;;;;;17.85;88.40;100480.55;1643825;86;21122;-60
2021/05/16 05:26:51;;;;;;;10.43;5.30;;;;;;;17.88;87.90;100484.41;1629832;87;21169;-61
2021/05/16 05:29:18;;;;;;;8.75;5.78;;;;;;;17.87;87.97;100479.95;1631527;86;21097;-63
2021/05/16 05:31:45;;;;;;;8.38;6.12;;;;;;;17.90;87.62;100481.98;1645344;86;21149;-61
2021/05/16 05:34:12;;;;;;;12.90;6.80;;;;;;;17.91;87.54;100496.39;1634209;86;21124;-61
2021/05/16 05:36:39;;;;;;;8.63;7.12;;;;;;;17.88;87.44;100488.47;1636620;86;21383;-63
2021/05/16 05:39:06;;;;;;;7.95;7.03;;;;;;;17.81;87.51;100493.45;1642453;86;21112;-62
2021/05/16 05:41:34;;;;;;;10.63;8.85;;;;;;;17.73;87.79;100491.27;1631808;87;21085;-64
2021/05/16 05:44:02;;;;;;;11.08;8.25;;;;;;;17.61;87.97;100485.36;1630761;86;21105;-66
2021/05/16 05:46:29;;;;;;;13.08;9.98;;;;;;;17.51;88.26;100488.30;1631871;86;21045;-62
2021/05/16 05:48:58;;;;;;;12.70;9.40;;;;;;;17.42;88.57;100487.97;1630333;86;21150;-61
2021/05/16 05:51:25;;;;;;;14.45;10.58;;;;;;;17.35;89.14;100486.62;1630770;87;21157;-63
2021/05/16 05:53:52;;;;;;;13.75;11.12;;;;;;;17.39;89.50;100499.02;1632097;86;21864;-64
2021/05/16 05:56:19;;;;;;;13.03;9.83;;;;;;;17.44;89.51;100495.98;1603348;89;21109;-62
2021/05/16 05:58:45;;;;;;;13.88;10.72;;;;;;;17.46;89.46;100496.73;1645740;85;21590;-65
2021/05/16 06:01:12;;;;;;;15.10;10.90;;;;;;;17.49;89.55;100484.83;1658936;84;21361;-61
2021/05/16 06:03:39;;;;;;;16.87;11.60;;;;;;;17.56;89.09;100480.72;1634108;86;21098;-61
2021/05/16 06:06:06;;;;;;;16.02;11.75;;;;;;;17.66;88.91;100481.83;1651197;85;21073;-61
2021/05/16 06:08:33;;;;;;;17.05;11.48;;;;;;;17.73;88.28;100487.20;1647633;86;21097;-61
2021/05/16 06:10:59;;;;;;;13.25;10.55;;;;;;;17.80;86.78;100482.73;1644599;85;21182;-61
2021/05/16 06:13:26;;;;;;;15.63;11.57;;;;;;;17.83;86.02;100483.36;1657490;85;21109;-63
2021/05/16 06:15:53;;;;;;;17.42;10.70;;;;;;;17.85;85.07;100488.19;1638859;86;21535;-62
2021/05/16 06:18:23;;;;;;;12.60;9.25;;;;;;;17.92;82.30;100483.71;1653448;85;21209;-62
2021/05/16 06:20:51;;;;;;;10.63;8.28;;;;;;;18.02;80.79;100487.05;1657937;85;21487;-62
2021/05/16 06:23:18;;;;;;;10.20;7.33;;;;;;;18.17;79.27;100487.80;1655309;84;22031;-63
2021/05/16 06:25:48;;;;;;;9.83;6.22;;;;;;;18.35;75.48;100489.30;1656077;85;21026;-65
2021/05/16 06:28:15;;;;;;;8.85;5.85;;;;;;;18.51;72.89;100492.64;1645817;85;21129;-67
2021/05/16 06:30:42;;;;;;;6.92;5.62;;;;;;;18.66;70.61;100496.55;1628060;85;21121;-66
2021/05/16 06:33:09;;;;;;;11.38;6.47;;;;;;;18.81;69.19;100495.44;1662986;85;22073;-65
2021/05/16 06:35:35;;;;;;;10.63;6.75;;;;;;;18.98;67.53;100494.20;1665028;85;21143;-62
2021/05/16 06:38:02;;;;;;;12.68;8.78;;;;;;;19.12;67.46;100495.91;1666949;83;21126;-65
2021/05/16 06:40:32;;;;;;;13.80;9.20;;;;;;;19.19;66.73;100499.00;1652546;85;21093;-67
2021/05/16 06:42:59;;;;;;;15.72;10.40;;;;;;;19.18;66.93;100496.80;1657383;84;21121;-65
2021/05/16 06:45:26;;;;;;;18.10;11.08;;;;;;;19.25;67.12;100503.12;1657581;86;21425;-64
2021/05/16 06:47:53;;;;;;;14.70;10.43;;;;;;;19.24;66.71;100495.95;1655509;85;21653;-65
2021/05/16 06:50:20;;;;;;;17.32;11.00;;;;;;;19.16;66.49;100491.97;1657885;85;21808;-67
2021/05/16 06:52:46;;;;;;;12.37;9.50;;;;;;;19.05;66.44;100493.26;1658690;85;21120;-66
2021/05/16 06:55:14;;;;;;;13.13;9.38;;;;;;;18.97;66.79;100487.00;1659890;83;21114;-66
2021/05/16 06:57:42;;;;;;;14.05;9.25;;;;;;;18.94;67.49;100487.75;1660448;84;21061;-66
2021/05/16 07:00:11;;;;;;;12.65;8.83;;;;;;;18.94;67.47;100487.23;1657364;85;21180;-66
2021/05/16 07:02:38;;;;;;;9.55;8.30;;;;;;;18.96;66.94;100487.14;1653038;84;21057;-66
2021/05/16 07:05:07;;;;;;;12.33;9.38;;;;;;;18.96;66.93;100489.86;1632223;85;21114;-66
2021/05/16 07:07:34;;;;;;;12.65;9.15;;;;;;;18.98;66.86;100491.96;1648091;85;21149;-65
2021/05/16 07:10:01;;;;;;;18.48;10.68;;;;;;;18.99;67.11;100496.44;1656985;85;21188;-67
2021/05/16 07:12:28;;;;;;;17.92;11.40;;;;;;;19.00;67.29;100489.52;1651577;85;21601;-67
2021/05/16 07:14:55;;;;;;;13.38;10.63;;;;;;;19.00;67.12;100484.09;1652484;85;21480;-67
2021/05/16 07:17:21;;;;;;;18.35;11.55;;;;;;;18.98;67.50;100486.05;1647259;85;21066;-66
2021/05/16 07:19:48;;;;;;;16.27;11.35;;;;;;;18.95;68.13;100490.84;1643688;85;21077;-67
2021/05/16 07:22:15;;;;;;;16.42;10.53;;;;;;;18.92;68.92;100479.70;1630625;86;21102;-63
2021/05/16 07:24:42;;;;;;;13.90;10.90;;;;;;;18.93;69.57;100479.22;1638164;85;21133;-63
2021/05/16 07:27:10;;;;;;;14.47;9.73;;;;;;;18.94;69.77;100480.95;1631882;86;21547;-62
2021/05/16 07:29:36;;;;;;;15.18;10.45;;;;;;;18.92;69.77;100480.20;1654268;85;21563;-62
2021/05/16 07:32:04;;;;;;;14.23;10.70;;;;;;;18.97;69.72;100477.50;1635515;85;21188;-66
2021/05/16 07:34:31;;;;;;;14.63;10.18;;;;;;;19.01;69.46;100474.10;1661239;85;21078;-67
2021/05/16 07:37:00;;;;;;;21.35;10.58;;;;;;;19.03;68.90;100473.02;1654327;84;21120;-67
2021/05/16 07:39:26;;;;;;;12.00;9.95;;;;;;;18.99;68.34;100467.41;1646657;86;21177;-62
2021/05/16 07:41:55;;;;;;;16.75;10.18;;;;;;;18.99;68.14;100467.92;1670142;84;21107;-62
2021/05/16 07:44:21;;;;;;;13.00;9.13;;;;;;;19.03;68.15;100465.34;1656497;85;21156;-66
2021/05/16 07:46:48;;;;;;;13.60;8.80;;;;;;;19.10;67.50;100472.03;1666994;84;21642;-66
2021/05/16 07:49:15;;;;;;;25.72;9.38;;;;;;;19.13;66.53;100470.95;1655027;85;21145;-66
2021/05/16 07:51:41;;;;;;;22.20;10.18;;;;;;;19.11;66.51;100475.13;1652591;84;21758;-64
2021/05/16 07:54:09;;;;;;;13.88;7.92;;;;;;;19.13;66.34;100462.32;1659493;84;21177;-66
2021/05/16 07:56:36;;;;;;;14.98;8.15;;;;;;;19.23;66.13;100467.04;1631710;86;21345;-66
2021/05/16 07:59:03;;;;;;;10.72;7.28;;;;;;;19.33;65.53;100470.30;1635405;85;21492;-63
2021/05/16 08:01:30;;;;;;;14.03;8.25;;;;;;;19.39;64.65;100466.25;1635495;86;21608;-64
2021/05/16 08:03:57;;;;;;;13.38;8.20;;;;;;;19.39;64.02;100459.45;1659341;84;21600;-63
2021/05/16 08:06:24;;;;;;;11.05;8.45;;;;;;;19.36;64.10;100463.77;1648531;85;21654;-63
2021/05/16 08:08:51;;;;;;;12.60;8.48;;;;;;;19.35;63.96;100457.96;1654186;85;21011;-64
2021/05/16 08:11:18;;;;;;;16.45;8.65;;;;;;;19.32;63.79;100460.41;1651063;86;21138;-63
2021/05/16 08:13:45;;;;;;;11.85;7.58;;;;;;;19.30;63.75;100460.14;1664949;84;21584;-69
2021/05/16 08:16:11;;;;;;;10.05;7.67;;;;;;;19.32;63.55;100459.53;1656581;84;21477;-63
2021/05/16 08:18:40;;;;;;;8.55;6.83;;;;;;;19.31;63.58;100451.89;1651090;85;21586;-64
2021/05/16 08:21:07;;;;;;;8.88;6.40;;;;;;;19.26;63.67;100455.94;1664703;84;21177;-63
2021/05/16 08:23:33;;;;;;;8.18;5.40;;;;;;;19.25;62.85;100457.80;1661958;84;21149;-63
2021/05/16 08:26:01;;;;;;;8.73;5.30;;;;;;;19.22;62.63;100449.00;1658862;84;21634;-62
2021/05/16 08:28:27;;;;;;;9.38;4.87;;;;;;;19.17;62.06;100454.30;1662394;84;21611;-63
2021/05/16 08:30:54;;;;;;;5.85;4.58;;;;;;;19.15;61.72;100447.24;1654203;85;21117;-65
2021/05/16 08:33:21;;;;;;;6.40;4.33;;;;;;;19.07;61.46;100443.75;1668247;84;21646;-62
2021/05/16 08:35:47;;;;;;;9.40;4.35;;;;;;;19.02;61.55;100444.59;1652777;84;21110;-62
2021/05/16 08:38:14;;;;;;;9.60;4.62;;;;;;;18.99;61.50;100438.04;1664793;85;21659;-63
2021/05/16 08:40:41;;;;;;;8.18;4.28;;;;;;;18.93;61.81;100429.82;1653207;85;21563;-64
2021/05/16 08:43:08;;;;;;;9.73;4.55;;;;;;;18.85;61.84;100440.41;1670886;85;21626;-63
2021/05/16 08:45:35;;;;;;;6.78;4.00;;;;;;;18.73;62.29;100432.18;1677162;83;21144;-63
2021/05/16 08:48:02;;;;;;;5.67;3.62;;;;;;;18.66;62.79;100431.39;1652648;86;21105;-67
2021/05/16 08:50:29;;;;;;;9.93;3.40;;;;;;;18.63;62.49;100436.58;1634952;86;21137;-62
2021/05/16 08:52:56;;;;;;;9.08;3.50;;;;;;;18.61;62.53;100429.04;1642367;85;21141;-62
2021/05/16 08:55:22;;;;;;;7.58;3.80;;;;;;;18.60;62.60;100430.88;1666900;84;21042;-63
2021/05/16 08:57:49;;;;;;;7.67;3.95;;;;;;;18.57;62.95;100427.03;1634502;86;21106;-62
2021/05/16 09:00:20;;;;;;;5.17;3.52;;;;;;;18.50;63.58;100418.98;1662545;84;21843;-67
2021/05/16 09:03:10;;;;;;;7.42;4.03;;;;;;;18.46;63.91;100407.98;1644599;85;21603;-67
2021/05/16 09:05:51;;;;;;;7.00;3.87;;;;;;;18.43;64.32;100413.13;1600295;87;21071;-63
2021/05/16 09:08:25;;;;;;;8.85;4.80;;;;;;;18.50;64.69;100401.34;1627905;86;21662;-63
2021/05/16 09:10:59;;;;;;;7.62;4.45;;;;;;;18.59;64.87;100407.42;1620424;86;21620;-63
2021/05/16 09:13:31;;;;;;;8.33;4.50;;;;;;;18.68;65.18;100399.56;1626183;86;21114;-63
2021/05/16 09:16:11;;;;;;;11.08;4.70;;;;;;;18.79;64.96;100403.70;1624296;86;21841;-62
2021/05/16 09:18:47;;;;;;;7.15;5.03;;;;;;;18.88;64.83;100392.64;1612793;86;21060;-62
2021/05/16 09:21:23;;;;;;;10.75;5.67;;;;;;;18.97;64.80;100389.22;1620711;86;21660;-67
2021/05/16 09:24:06;;;;;;;7.30;4.53;;;;;;;19.09;64.62;100390.16;1629657;85;21603;-67
2021/05/16 09:26:35;;;;;;;13.62;4.97;;;;;;;19.11;64.45;100389.54;1615461;85;21051;-67
2021/05/16 09:29:29;;;;;;;7.78;4.28;;;;;;;19.11;64.54;100385.98;1605860;87;21054;-69
2021/05/16 09:31:57;;;;;;;10.43;4.80;;;;;;;19.14;64.44;100377.11;1611919;86;21160;-69
2021/05/16 09:34:26;;;;;;;7.90;4.40;;;;;;;19.20;64.06;100380.33;1628098;86;21152;-62
2021/05/16 09:36:53;;;;;;;6.80;4.00;;;;;;;19.23;64.02;100378.72;1641945;85;21131;-67
2021/05/16 09:39:29;;;;;;;11.45;4.60;;;;;;;19.21;64.29;100379.34;1594632;88;21143;-62
2021/05/16 09:42:08;;;;;;;9.35;4.28;;;;;;;19.17;64.35;100366.00;1624797;86;21574;-68
2021/05/16 09:44:50;;;;;;;6.28;4.10;;;;;;;19.16;64.59;100358.83;1622541;86;21441;-63
2021/05/16 09:47:28;;;;;;;12.78;3.77;;;;;;;19.20;64.58;100361.30;1621805;86;21137;-64
2021/05/16 09:49:57;;;;;;;11.12;3.83;;;;;;;19.31;64.68;100369.47;1625884;86;21149;-64
2021/05/16 09:52:31;;;;;;;6.25;3.92;;;;;;;19.41;64.18;100358.27;1604512;87;21042;-64
2021/05/16 09:55:11;;;;;;;7.60;3.87;;;;;;;19.52;63.91;100357.89;1611609;86;21171;-64
2021/05/16 09:57:42;;;;;;;8.18;4.47;;;;;;;19.60;63.51;100352.22;1619451;85;21133;-65
2021/05/16 10:00:11;;;;;;;7.12;4.25;;;;;;;19.65;62.80;100353.22;1614023;86;21153;-64
2021/05/16 10:02:38;;;;;;;7.08;3.83;;;;;;;19.71;62.81;100351.37;1619326;86;21028;-64
2021/05/16 10:05:08;;;;;;;8.63;3.62;;;;;;;19.81;62.78;100344.70;1602448;87;21139;-63
2021/05/16 10:07:34;;;;;;;13.35;4.47;;;;;;;19.93;62.63;100330.62;1596162;88;21146;-63
2021/05/16 10:10:01;;;;;;;8.00;3.50;;;;;;;20.02;62.22;100336.69;1630918;86;21172;-68
2021/05/16 10:12:28;;;;;;;6.03;3.20;;;;;;;20.04;61.76;100333.34;1604555;87;21066;-69
2021/05/16 10:15:10;;;;;;;5.00;3.02;;;;;;;20.04;60.87;100310.70;1590312;87;21177;-69
2021/05/16 10:17:38;;;;;;;6.60;3.12;;;;;;;20.02;60.29;100306.77;1603575;87;21530;-64
2021/05/16 10:20:16;;;;;;;4.72;2.83;;;;;;;19.96;59.99;100322.20;1614571;87;21170;-69
2021/05/16 10:22:57;;;;;;;7.50;2.77;;;;;;;19.95;60.12;100338.16;1613929;87;21562;-63
2021/05/16 10:25:45;;;;;;;5.90;3.20;;;;;;;19.93;60.28;100348.30;1603148;87;21607;-65
2021/05/16 10:28:17;;;;;;;2.87;2.50;;;;;;;19.88;60.48;100364.95;1601062;87;21550;-64
2021/05/16 10:31:03;;;;;;;5.67;3.17;;;;;;;19.87;60.92;100354.22;1597899;87;21540;-67
2021/05/16 10:33:34;;;;;;;10.28;3.50;;;;;;;19.90;61.27;100341.25;1590861;87;21650;-66
2021/05/16 10:36:00;;;;;;;8.50;3.52;;;;;;;19.96;61.84;100345.84;1592490;88;21170;-68
2021/05/16 10:38:38;;;;;;;11.45;4.47;;;;;;;19.99;62.39;100342.87;1595606;88;21067;-63
2021/05/16 10:41:25;;;;;;;7.08;3.90;;;;;;;20.00;62.53;100334.56;1595622;88;21121;-69
2021/05/16 10:44:30;;;;;;;14.18;4.50;;;;;;;19.99;63.19;100341.51;1604847;88;21157;-68
2021/05/16 10:46:57;;;;;;;8.60;4.08;;;;;;;19.96;63.64;100335.81;1590392;88;21157;-64
2021/05/16 10:49:26;;;;;;;8.38;4.62;;;;;;;19.90;64.17;100337.64;1586291;88;22564;-64
2021/05/16 10:51:54;;;;;;;7.50;4.30;;;;;;;19.80;64.79;100329.36;1596234;88;21134;-69
2021/05/16 10:54:34;;;;;;;12.85;4.05;;;;;;;19.70;65.34;100333.31;1603207;88;22288;-70
2021/05/16 10:57:15;;;;;;;9.68;4.30;;;;;;;19.60;65.68;100333.70;1594630;88;21638;-70
2021/05/16 10:59:43;;;;;;;7.87;3.95;;;;;;;19.50;66.49;100329.97;1622784;86;21161;-70
2021/05/16 11:02:25;;;;;;;5.87;3.52;;;;;;;19.38;66.86;100328.61;1622155;88;21090;-62
2021/05/16 11:04:52;;;;;;;10.55;3.67;;;;;;;19.28;67.32;100329.83;1625886;84;21114;-62
2021/05/16 11:07:36;;;;;;;6.30;4.00;;;;;;;19.28;67.79;100326.23;1637739;86;21659;-64
2021/05/16 11:10:29;;;;;;;5.12;3.00;;;;;;;19.31;67.89;100323.27;1631886;86;21091;-72
2021/05/16 11:13:28;;;;;;;11.75;3.20;;;;;;;19.36;67.62;100319.72;1641311;85;21718;-63
2021/05/16 11:16:06;;;;;;;8.73;3.60;;;;;;;19.36;67.71;100312.92;1641322;85;21178;-70
2021/05/16 11:18:34;;;;;;;9.38;3.08;;;;;;;19.35;67.77;100308.48;1668872;84;21038;-69
2021/05/16 11:21:06;;;;;;;9.93;3.10;;;;;;;19.34;67.72;100298.56;1672923;84;21118;-63